createdAt,value
2022-11-26T00:02:20.445Z,94.21
2022-11-26T00:04:49.271Z,94.45
2022-11-26T00:07:23.475Z,94.43
2022-11-26T00:09:51.892Z,94.21
2022-11-26T00:12:23.972Z,94.82
2022-11-26T00:14:53.500Z,94.73
2022-11-26T00:17:23.542Z,94.42
2022-11-26T00:19:51.917Z,94.63
2022-11-26T00:22:30.166Z,94.63
2022-11-26T00:24:59.389Z,94.74
2022-11-26T00:27:33.266Z,94.70
2022-11-26T00:30:15.900Z,94.91
2022-11-26T00:32:44.105Z,94.48
2022-11-26T00:35:13.020Z,94.82
2022-11-26T00:37:46.651Z,94.94
2022-11-26T00:40:24.981Z,95.29
2022-11-26T00:43:01.612Z,95.26
2022-11-26T00:45:38.722Z,94.68
2022-11-26T00:48:11.192Z,94.86
2022-11-26T00:50:44.957Z,95.45
2022-11-26T00:53:22.521Z,95.34
2022-11-26T00:55:54.238Z,94.98
2022-11-26T00:58:33.745Z,95.19
2022-11-26T01:01:02.220Z,95.76
2022-11-26T01:03:30.965Z,95.46
2022-11-26T01:06:00.860Z,95.69
2022-11-26T01:08:35.224Z,95.17
2022-11-26T01:11:12.063Z,95.28
2022-11-26T01:13:40.497Z,95.62
2022-11-26T01:16:21.169Z,95.39
2022-11-26T01:18:52.445Z,95.69
2022-11-26T01:21:25.909Z,95.49
2022-11-26T01:23:55.674Z,95.20
2022-11-26T01:26:28.508Z,95.53
2022-11-26T01:28:57.056Z,95.30
2022-11-26T01:31:30.635Z,95.43
2022-11-26T01:34:00.258Z,95.82
2022-11-26T01:36:32.198Z,95.58
2022-11-26T01:39:16.024Z,95.38
2022-11-26T01:41:54.425Z,95.20
2022-11-26T01:44:26.469Z,94.82
2022-11-26T01:46:56.282Z,95.27
2022-11-26T01:49:28.074Z,94.80
2022-11-26T01:52:05.448Z,95.61
2022-11-26T01:54:38.366Z,95.24
2022-11-26T01:57:11.043Z,95.28
2022-11-26T01:59:42.548Z,94.96
2022-11-26T02:02:11.567Z,95.25
2022-11-26T02:04:44.144Z,95.22
2022-11-26T02:07:12.968Z,95.21
2022-11-26T02:09:43.642Z,94.93
2022-11-26T02:12:12.073Z,95.27
2022-11-26T02:14:44.408Z,95.33
2022-11-26T02:17:21.730Z,95.34
2022-11-26T02:20:28.050Z,95.08
2022-11-26T02:23:40.268Z,94.88
2022-11-26T02:26:52.513Z,95.06
2022-11-26T02:29:34.267Z,94.87
2022-11-26T02:32:11.858Z,95.28
2022-11-26T02:34:45.781Z,95.20
2022-11-26T02:37:21.657Z,95.10
2022-11-26T02:39:50.151Z,95.19
2022-11-26T02:42:26.620Z,95.42
2022-11-26T02:44:59.162Z,95.38
2022-11-26T02:47:31.059Z,94.64
2022-11-26T02:50:05.079Z,95.40
2022-11-26T02:52:34.708Z,95.54
2022-11-26T02:55:05.511Z,95.18
2022-11-26T02:57:35.963Z,94.51
2022-11-26T03:00:05.895Z,94.82
2022-11-26T03:02:41.322Z,94.42
2022-11-26T03:05:10.706Z,94.62
2022-11-26T03:07:39.609Z,94.56
2022-11-26T03:10:09.528Z,94.57
2022-11-26T03:12:37.797Z,94.06
2022-11-26T03:15:07.493Z,94.20
2022-11-26T03:17:37.135Z,94.45
2022-11-26T03:20:07.624Z,94.12
2022-11-26T03:22:35.954Z,94.20
2022-11-26T03:25:05.084Z,94.80
2022-11-26T03:27:33.734Z,94.14
2022-11-26T03:30:02.217Z,94.28
2022-11-26T03:32:31.085Z,94.34
2022-11-26T03:35:01.202Z,94.20
2022-11-26T03:37:29.492Z,94.53
2022-11-26T03:39:57.683Z,94.45
2022-11-26T03:42:26.051Z,94.71
2022-11-26T03:44:54.571Z,94.55
2022-11-26T03:47:22.859Z,94.36
2022-11-26T03:49:51.071Z,94.61
2022-11-26T03:52:20.810Z,94.66
2022-11-26T03:54:49.852Z,94.39
2022-11-26T03:57:18.066Z,94.72
2022-11-26T03:59:46.382Z,94.32
2022-11-26T04:02:14.769Z,94.56
2022-11-26T04:04:43.117Z,94.57
2022-11-26T04:07:11.418Z,94.41
2022-11-26T04:09:41.275Z,94.49
2022-11-26T04:12:09.728Z,94.55
2022-11-26T04:14:38.598Z,94.73
2022-11-26T04:17:07.144Z,94.86
2022-11-26T04:19:35.431Z,94.85
2022-11-26T04:22:03.740Z,94.59
2022-11-26T04:24:52.793Z,94.80
2022-11-26T04:27:21.662Z,94.86
2022-11-26T04:29:49.861Z,94.52
2022-11-26T04:32:18.779Z,94.49
2022-11-26T04:34:47.275Z,94.20
2022-11-26T04:37:17.654Z,94.55
2022-11-26T04:39:47.529Z,94.62
2022-11-26T04:42:18.296Z,94.36
2022-11-26T04:44:46.531Z,94.51
2022-11-26T04:47:14.760Z,94.42
2022-11-26T04:49:42.965Z,94.15
2022-11-26T04:52:11.370Z,94.08
2022-11-26T04:54:40.115Z,93.90
2022-11-26T04:57:09.902Z,94.09
2022-11-26T04:59:38.094Z,94.19
2022-11-26T05:02:06.531Z,94.58
2022-11-26T05:04:34.914Z,94.53
2022-11-26T05:07:03.097Z,94.39
2022-11-26T05:09:31.260Z,94.08
2022-11-26T05:11:59.449Z,94.43
2022-11-26T05:14:29.012Z,94.53
2022-11-26T05:16:57.319Z,94.26
2022-11-26T05:19:25.888Z,94.05
2022-11-26T05:21:54.104Z,94.47
2022-11-26T05:24:22.414Z,94.32
2022-11-26T05:26:56.467Z,94.39
2022-11-26T05:29:25.864Z,94.39
2022-11-26T05:31:55.535Z,94.34
2022-11-26T05:34:23.759Z,94.09
2022-11-26T05:36:52.084Z,94.22
2022-11-26T05:39:20.303Z,93.94
2022-11-26T05:41:48.633Z,94.80
2022-11-26T05:44:16.927Z,94.44
2022-11-26T05:46:45.482Z,94.55
2022-11-26T05:49:15.643Z,94.59
2022-11-26T05:51:43.875Z,94.82
2022-11-26T05:54:14.840Z,94.50
2022-11-26T05:56:44.203Z,95.01
2022-11-26T05:59:12.513Z,94.87
2022-11-26T06:01:42.113Z,94.35
2022-11-26T06:04:10.364Z,94.54
2022-11-26T06:06:39.974Z,94.10
2022-11-26T06:09:08.254Z,93.79
2022-11-26T06:11:36.550Z,94.07
2022-11-26T06:14:04.856Z,94.14
2022-11-26T06:16:33.052Z,93.75
2022-11-26T06:19:01.303Z,94.29
2022-11-26T06:21:29.614Z,93.95
2022-11-26T06:23:59.943Z,93.66
2022-11-26T06:26:28.528Z,93.74
2022-11-26T06:28:57.772Z,94.30
2022-11-26T06:31:26.427Z,93.59
2022-11-26T06:33:56.176Z,94.00
2022-11-26T06:36:26.004Z,93.83
2022-11-26T06:38:54.205Z,93.56
2022-11-26T06:41:23.812Z,94.13
2022-11-26T06:43:52.290Z,93.90
2022-11-26T06:46:21.176Z,94.12
2022-11-26T06:48:49.390Z,94.26
2022-11-26T06:51:20.522Z,94.21
2022-11-26T06:53:48.864Z,94.39
2022-11-26T06:56:19.756Z,94.73
2022-11-26T06:58:52.585Z,94.55
2022-11-26T07:01:23.778Z,95.26
2022-11-26T07:03:52.776Z,94.86
2022-11-26T07:06:23.592Z,95.30
2022-11-26T07:08:54.294Z,95.65
2022-11-26T07:11:24.186Z,95.81
2022-11-26T07:13:54.470Z,95.39
2022-11-26T07:16:23.887Z,95.86
2022-11-26T07:18:59.404Z,95.46
2022-11-26T07:21:31.795Z,96.03
2022-11-26T07:24:00.392Z,96.11
2022-11-26T07:26:28.685Z,96.15
2022-11-26T07:28:58.470Z,96.03
2022-11-26T07:31:27.803Z,96.06
2022-11-26T07:33:57.750Z,96.52
2022-11-26T07:36:30.512Z,96.62
2022-11-26T07:39:00.565Z,96.63
2022-11-26T07:41:31.550Z,97.01
2022-11-26T07:44:01.778Z,97.09
2022-11-26T07:46:30.165Z,96.56
2022-11-26T07:48:58.959Z,96.97
2022-11-26T07:51:29.355Z,96.96
2022-11-26T07:53:59.554Z,96.92
2022-11-26T07:56:28.382Z,97.06
2022-11-26T07:58:56.821Z,97.17
2022-11-26T08:01:29.710Z,96.92
2022-11-26T08:03:59.754Z,96.23
2022-11-26T08:06:30.972Z,96.81
2022-11-26T08:09:02.347Z,97.30
2022-11-26T08:11:33.276Z,97.51
2022-11-26T08:14:04.455Z,97.32
2022-11-26T08:16:35.026Z,97.30
2022-11-26T08:19:06.473Z,98.10
2022-11-26T08:21:36.091Z,98.25
2022-11-26T08:24:05.009Z,97.45
2022-11-26T08:26:37.394Z,97.76
2022-11-26T08:29:08.303Z,98.29
2022-11-26T08:31:45.311Z,97.89
2022-11-26T08:34:16.711Z,97.47
2022-11-26T08:36:46.763Z,97.45
2022-11-26T08:39:18.495Z,98.13
2022-11-26T08:41:52.060Z,97.31
2022-11-26T08:44:21.597Z,98.37
2022-11-26T08:46:52.226Z,97.97
2022-11-26T08:49:20.522Z,97.94
2022-11-26T08:51:49.461Z,98.44
2022-11-26T08:54:18.160Z,98.44
2022-11-26T08:56:46.462Z,97.86
2022-11-26T08:59:15.163Z,98.84
2022-11-26T09:01:47.181Z,97.87
2022-11-26T09:04:20.137Z,98.28
2022-11-26T09:06:48.905Z,98.25
2022-11-26T09:09:18.082Z,98.16
2022-11-26T09:11:51.944Z,98.29
2022-11-26T09:14:25.514Z,98.40
2022-11-26T09:16:54.073Z,98.27
2022-11-26T09:19:25.300Z,98.47
2022-11-26T09:21:53.770Z,98.18
2022-11-26T09:24:25.642Z,98.34
2022-11-26T09:26:54.676Z,99.61
2022-11-26T09:29:24.903Z,98.54
2022-11-26T09:32:21.989Z,98.55
2022-11-26T09:34:45.943Z,99.27
2022-11-26T09:37:15.453Z,99.07
2022-11-26T09:39:44.031Z,98.25
2022-11-26T09:42:26.680Z,99.58
2022-11-26T09:45:09.600Z,98.81
2022-11-26T09:47:42.789Z,98.54
2022-11-26T09:50:28.448Z,98.64
2022-11-26T09:53:01.633Z,99.08
2022-11-26T09:55:35.672Z,98.34
2022-11-26T09:58:15.422Z,98.95
2022-11-26T10:00:48.061Z,99.33
2022-11-26T10:03:19.939Z,99.43
2022-11-26T10:05:59.447Z,99.89
2022-11-26T10:09:08.699Z,98.80
2022-11-26T10:11:45.764Z,99.36
2022-11-26T10:14:32.768Z,100.00
2022-11-26T10:17:22.248Z,98.82
2022-11-26T10:20:10.022Z,99.29
2022-11-26T10:22:51.551Z,99.42
2022-11-26T10:25:28.516Z,99.15
2022-11-26T10:27:59.049Z,99.56
2022-11-26T10:30:33.486Z,99.92
2022-11-26T10:33:04.231Z,99.01
2022-11-26T10:35:33.932Z,99.59
2022-11-26T10:38:06.391Z,99.29
2022-11-26T10:40:34.670Z,100.00
2022-11-26T10:43:13.656Z,100.00
2022-11-26T10:45:49.176Z,100.00
2022-11-26T10:48:26.742Z,99.90
2022-11-26T10:51:04.999Z,99.76
2022-11-26T10:53:52.202Z,100.00
2022-11-26T10:56:24.106Z,100.00
2022-11-26T10:58:54.409Z,99.68
2022-11-26T11:01:22.774Z,100.00
2022-11-26T11:04:09.424Z,100.00
2022-11-26T11:06:42.908Z,99.97
2022-11-26T11:09:36.115Z,100.00
2022-11-26T11:12:21.999Z,100.00
2022-11-26T11:14:51.805Z,100.00
2022-11-26T11:17:34.643Z,100.00
2022-11-26T11:20:24.340Z,99.98
2022-11-26T11:23:03.927Z,100.00
2022-11-26T11:25:35.982Z,99.93
2022-11-26T11:28:14.393Z,100.00
2022-11-26T11:30:43.510Z,100.00
2022-11-26T11:33:22.176Z,100.00
2022-11-26T11:36:07.638Z,100.00
2022-11-26T11:38:48.859Z,100.00
2022-11-26T11:41:29.047Z,100.00
2022-11-26T11:44:15.865Z,99.99
2022-11-26T11:47:25.312Z,100.00
2022-11-26T11:50:18.316Z,100.00
2022-11-26T11:52:59.858Z,100.00
2022-11-26T11:55:45.429Z,100.00
2022-11-26T11:58:50.082Z,99.85
2022-11-26T12:01:36.643Z,100.00
2022-11-26T12:04:28.565Z,100.00
2022-11-26T12:07:24.703Z,99.94
2022-11-26T12:10:02.599Z,100.00
2022-11-26T12:12:38.011Z,99.90
2022-11-26T12:15:14.109Z,99.57
2022-11-26T12:17:50.102Z,99.59
2022-11-26T12:20:28.570Z,99.23
2022-11-26T12:23:14.803Z,99.03
2022-11-26T12:25:48.560Z,99.52
2022-11-26T12:28:19.551Z,99.03
2022-11-26T12:30:56.844Z,98.74
2022-11-26T12:33:32.197Z,99.29
2022-11-26T12:36:06.547Z,98.88
2022-11-26T12:38:42.004Z,98.89
2022-11-26T12:41:14.969Z,99.20
2022-11-26T12:43:54.025Z,99.48
2022-11-26T12:46:29.945Z,98.49
2022-11-26T12:49:07.712Z,98.79
2022-11-26T12:51:43.011Z,98.75
2022-11-26T12:54:20.031Z,98.49
2022-11-26T12:56:58.433Z,98.61
2022-11-26T12:59:33.387Z,98.46
2022-11-26T13:02:21.894Z,97.97
2022-11-26T13:04:52.036Z,98.13
2022-11-26T13:07:39.796Z,98.51
2022-11-26T13:10:23.687Z,98.49
2022-11-26T13:13:02.312Z,98.22
2022-11-26T13:15:40.980Z,98.38
2022-11-26T13:18:20.212Z,98.11
2022-11-26T13:21:10.573Z,98.46
2022-11-26T13:24:05.979Z,98.16
2022-11-26T13:26:58.800Z,98.10
2022-11-26T13:30:08.664Z,98.24
2022-11-26T13:33:25.667Z,98.25
2022-11-26T13:36:22.923Z,97.87
2022-11-26T13:39:05.764Z,97.62
2022-11-26T13:42:21.455Z,97.95
2022-11-26T13:45:34.306Z,98.61
2022-11-26T13:48:07.617Z,98.14
2022-11-26T13:50:43.372Z,98.22
2022-11-26T13:53:23.723Z,98.07
2022-11-26T13:55:59.387Z,98.09
2022-11-26T13:58:32.096Z,98.21
2022-11-26T14:01:29.273Z,98.30
2022-11-26T14:03:58.486Z,97.83
2022-11-26T14:06:29.312Z,97.26
2022-11-26T14:08:58.250Z,97.59
2022-11-26T14:12:00.982Z,97.63
2022-11-26T14:14:34.404Z,97.99
2022-11-26T14:17:34.911Z,97.54
2022-11-26T14:20:11.171Z,97.73
2022-11-26T14:22:41.116Z,97.52
2022-11-26T14:25:14.451Z,97.67
2022-11-26T14:27:53.354Z,97.66
2022-11-26T14:30:28.268Z,97.65
2022-11-26T14:33:12.125Z,97.95
2022-11-26T14:35:42.971Z,97.36
2022-11-26T14:38:27.304Z,97.93
2022-11-26T14:41:00.778Z,97.79
2022-11-26T14:43:45.471Z,97.25
2022-11-26T14:46:20.586Z,97.53
2022-11-26T14:48:51.122Z,97.46
2022-11-26T14:51:27.027Z,97.82
2022-11-26T14:53:57.235Z,97.74
2022-11-26T14:56:26.797Z,97.75
2022-11-26T14:58:57.859Z,97.21
2022-11-26T15:01:29.402Z,97.73
2022-11-26T15:04:01.724Z,97.59
2022-11-26T15:06:34.961Z,97.44
2022-11-26T15:09:14.907Z,97.00
2022-11-26T15:11:48.290Z,97.07
2022-11-26T15:14:29.517Z,97.35
2022-11-26T15:17:00.763Z,96.84
2022-11-26T15:19:34.227Z,97.05
2022-11-26T15:22:07.040Z,96.87
2022-11-26T15:24:37.720Z,96.65
2022-11-26T15:27:06.992Z,97.41
2022-11-26T15:29:41.207Z,96.98
2022-11-26T15:32:31.382Z,97.27
2022-11-26T15:35:03.687Z,97.04
2022-11-26T15:37:32.021Z,97.19
2022-11-26T15:40:22.834Z,97.34
2022-11-26T15:42:55.165Z,97.01
2022-11-26T15:45:32.371Z,97.38
2022-11-26T15:48:01.312Z,97.16
2022-11-26T15:50:34.327Z,96.45
2022-11-26T15:53:06.257Z,97.38
2022-11-26T15:55:38.781Z,97.27
2022-11-26T15:58:12.239Z,96.55
2022-11-26T16:00:42.567Z,96.37
2022-11-26T16:03:37.859Z,97.11
2022-11-26T16:06:11.003Z,97.35
2022-11-26T16:08:43.118Z,96.27
2022-11-26T16:11:23.732Z,96.52
2022-11-26T16:13:52.090Z,96.57
2022-11-26T16:16:23.002Z,97.09
2022-11-26T16:18:58.963Z,96.89
2022-11-26T16:21:29.798Z,96.38
2022-11-26T16:24:01.761Z,96.88
2022-11-26T16:26:35.040Z,96.87
2022-11-26T16:29:03.315Z,96.74
2022-11-26T16:31:32.348Z,96.74
2022-11-26T16:34:03.227Z,96.96
2022-11-26T16:36:35.193Z,97.18
2022-11-26T16:39:03.434Z,96.32
2022-11-26T16:41:33.060Z,97.27
2022-11-26T16:44:01.308Z,97.32
2022-11-26T16:46:30.692Z,96.67
2022-11-26T16:48:59.342Z,97.10
2022-11-26T16:51:27.637Z,97.09
2022-11-26T16:53:55.891Z,96.57
2022-11-26T16:56:29.773Z,96.59
2022-11-26T16:59:02.571Z,96.88
2022-11-26T17:01:33.823Z,96.88
2022-11-26T17:04:01.995Z,96.61
2022-11-26T17:06:34.768Z,96.10
2022-11-26T17:09:03.863Z,96.09
2022-11-26T17:11:32.987Z,96.30
2022-11-26T17:14:03.400Z,96.95
2022-11-26T17:16:31.724Z,96.46
2022-11-26T17:19:00.021Z,95.93
2022-11-26T17:21:28.549Z,96.62
2022-11-26T17:23:57.786Z,96.91
2022-11-26T17:26:26.794Z,96.16
2022-11-26T17:28:55.091Z,96.04
2022-11-26T17:31:40.176Z,97.31
2022-11-26T17:34:09.220Z,97.44
2022-11-26T17:36:37.963Z,97.62
2022-11-26T17:39:06.474Z,96.76
2022-11-26T17:41:34.691Z,97.62
2022-11-26T17:44:07.096Z,97.44
2022-11-26T17:47:00.996Z,97.09
2022-11-26T17:49:25.687Z,96.91
2022-11-26T17:51:54.283Z,96.45
2022-11-26T17:54:22.645Z,96.50
2022-11-26T17:56:50.876Z,97.12
2022-11-26T17:59:21.138Z,96.05
2022-11-26T18:01:52.094Z,97.52
2022-11-26T18:04:20.607Z,96.95
2022-11-26T18:06:59.505Z,96.63
2022-11-26T18:09:27.850Z,96.88
2022-11-26T18:11:58.009Z,97.31
2022-11-26T18:14:26.637Z,97.25
2022-11-26T18:16:55.401Z,96.25
2022-11-26T18:19:24.758Z,96.46
2022-11-26T18:21:54.404Z,96.21
2022-11-26T18:24:22.682Z,96.17
2022-11-26T18:26:52.550Z,97.17
2022-11-26T18:29:20.877Z,96.25
2022-11-26T18:31:49.373Z,97.16
2022-11-26T18:34:17.742Z,96.94
2022-11-26T18:36:50.677Z,96.26
2022-11-26T18:39:23.354Z,96.42
2022-11-26T18:41:54.498Z,96.29
2022-11-26T18:44:25.898Z,96.30
2022-11-26T18:46:54.085Z,96.51
2022-11-26T18:49:22.673Z,96.99
2022-11-26T18:51:51.148Z,96.99
2022-11-26T18:54:19.360Z,97.28
2022-11-26T18:56:48.952Z,96.40
2022-11-26T18:59:17.572Z,96.84
2022-11-26T19:01:46.811Z,97.80
2022-11-26T19:04:15.208Z,96.71
2022-11-26T19:06:43.468Z,97.28
2022-11-26T19:09:20.243Z,96.35
2022-11-26T19:11:50.268Z,97.75
2022-11-26T19:14:18.816Z,97.48
2022-11-26T19:16:51.213Z,96.92
2022-11-26T19:19:19.968Z,96.40
2022-11-26T19:21:49.703Z,96.54
2022-11-26T19:24:18.137Z,96.96
2022-11-26T19:26:46.343Z,97.13
2022-11-26T19:29:15.990Z,96.66
2022-11-26T19:31:44.823Z,96.63
2022-11-26T19:34:16.404Z,97.62
2022-11-26T19:36:48.379Z,96.92
2022-11-26T19:39:18.246Z,96.72
2022-11-26T19:41:46.579Z,97.45
2022-11-26T19:44:18.697Z,96.82
2022-11-26T19:46:48.264Z,96.93
2022-11-26T19:49:16.644Z,96.45
2022-11-26T19:51:44.960Z,97.41
2022-11-26T19:54:13.236Z,96.84
2022-11-26T19:56:43.050Z,96.50
2022-11-26T19:59:11.423Z,96.15
2022-11-26T20:01:42.147Z,96.28
2022-11-26T20:04:15.866Z,97.17
2022-11-26T20:06:47.094Z,97.09
2022-11-26T20:09:16.258Z,96.07
2022-11-26T20:11:44.737Z,96.51
2022-11-26T20:14:15.380Z,96.43
2022-11-26T20:16:47.287Z,96.91
2022-11-26T20:19:15.600Z,96.59
2022-11-26T20:21:44.005Z,96.38
2022-11-26T20:24:16.264Z,96.09
2022-11-26T20:26:48.669Z,96.17
2022-11-26T20:29:20.273Z,97.19
2022-11-26T20:31:52.622Z,97.09
2022-11-26T20:34:24.105Z,97.17
2022-11-26T20:36:52.484Z,97.62
2022-11-26T20:39:23.371Z,97.42
2022-11-26T20:41:52.049Z,97.39
2022-11-26T20:44:20.328Z,96.63
2022-11-26T20:46:49.978Z,97.30
2022-11-26T20:49:18.240Z,97.39
2022-11-26T20:51:46.663Z,97.25
2022-11-26T20:54:15.030Z,96.88
2022-11-26T20:56:43.348Z,97.70
2022-11-26T20:59:11.647Z,97.02
2022-11-26T21:01:40.656Z,97.04
2022-11-26T21:04:10.407Z,97.90
2022-11-26T21:06:38.820Z,96.69
2022-11-26T21:09:07.548Z,97.27
2022-11-26T21:11:37.267Z,96.93
2022-11-26T21:14:11.917Z,96.90
2022-11-26T21:16:43.016Z,97.24
2022-11-26T21:19:14.026Z,97.36
2022-11-26T21:21:42.597Z,96.78
2022-11-26T21:24:10.980Z,97.92
2022-11-26T21:26:39.753Z,97.50
2022-11-26T21:29:08.095Z,97.47
2022-11-26T21:31:36.608Z,96.30
2022-11-26T21:34:08.230Z,96.53
2022-11-26T21:36:38.796Z,96.30
2022-11-26T21:39:07.585Z,96.96
2022-11-26T21:41:37.400Z,96.42
2022-11-26T21:44:06.057Z,96.88
2022-11-26T21:46:38.637Z,96.33
2022-11-26T21:49:08.395Z,97.07
2022-11-26T21:51:38.185Z,96.15
2022-11-26T21:54:06.796Z,95.87
2022-11-26T21:56:37.797Z,96.03
2022-11-26T21:59:06.148Z,96.18
2022-11-26T22:01:38.124Z,96.53
2022-11-26T22:04:09.257Z,96.19
2022-11-26T22:06:39.505Z,95.45
2022-11-26T22:09:09.041Z,96.42
2022-11-26T22:11:41.490Z,96.12
2022-11-26T22:14:11.725Z,95.87
2022-11-26T22:16:40.108Z,95.66
2022-11-26T22:19:08.410Z,96.53
2022-11-26T22:21:40.380Z,96.06
2022-11-26T22:24:13.206Z,95.88
2022-11-26T22:26:42.821Z,95.25
2022-11-26T22:29:12.636Z,95.52
2022-11-26T22:31:41.173Z,95.50
2022-11-26T22:34:12.423Z,95.71
2022-11-26T22:36:44.035Z,96.73
2022-11-26T22:39:14.829Z,95.68
2022-11-26T22:41:45.241Z,96.35
2022-11-26T22:44:14.799Z,95.54
2022-11-26T22:46:43.370Z,95.94
2022-11-26T22:49:14.470Z,96.06
2022-11-26T22:51:44.616Z,95.92
2022-11-26T22:54:18.125Z,96.12
2022-11-26T22:56:46.920Z,95.81
2022-11-26T22:59:15.788Z,95.62
2022-11-26T23:01:44.256Z,95.60
2022-11-26T23:04:13.602Z,95.24
2022-11-26T23:06:44.114Z,94.98
2022-11-26T23:09:14.520Z,94.56
2022-11-26T23:11:44.303Z,95.47
2022-11-26T23:14:13.080Z,95.39
2022-11-26T23:16:43.443Z,95.54
2022-11-26T23:19:15.261Z,95.18
2022-11-26T23:21:46.724Z,95.05
2022-11-26T23:24:15.926Z,95.23
2022-11-26T23:26:44.732Z,94.90
2022-11-26T23:29:13.790Z,94.85
2022-11-26T23:31:46.441Z,94.19
2022-11-26T23:34:16.200Z,94.39
2022-11-26T23:36:47.412Z,95.19
2022-11-26T23:39:17.264Z,94.60
2022-11-26T23:41:45.517Z,94.52
2022-11-26T23:44:14.357Z,94.89
2022-11-26T23:46:46.637Z,94.45
2022-11-26T23:49:15.035Z,94.77
2022-11-26T23:51:43.447Z,95.29
2022-11-26T23:54:13.358Z,94.99
2022-11-26T23:56:44.570Z,95.02
2022-11-26T23:59:14.350Z,94.97
